createdAt,value
2022-10-17T00:02:57.588Z,12.86
2022-10-17T00:07:59.080Z,12.90
2022-10-17T00:13:00.637Z,13.02
2022-10-17T00:18:02.334Z,12.81
2022-10-17T00:23:03.915Z,12.83
2022-10-17T00:28:05.555Z,12.87
2022-10-17T00:33:08.523Z,12.66
2022-10-17T00:38:10.030Z,12.75
2022-10-17T00:43:17.816Z,12.52
2022-10-17T00:48:23.201Z,12.56
2022-10-17T00:53:25.061Z,12.44
2022-10-17T00:58:26.643Z,12.37
2022-10-17T01:03:28.244Z,12.38
2022-10-17T01:08:30.238Z,12.37
2022-10-17T01:13:53.517Z,12.38
2022-10-17T01:19:20.838Z,12.49
2022-10-17T01:24:45.862Z,12.55
2022-10-17T01:29:57.469Z,12.61
2022-10-17T01:35:10.313Z,12.71
2022-10-17T01:40:27.947Z,12.89
2022-10-17T01:45:54.865Z,13.12
2022-10-17T01:51:11.408Z,13.11
2022-10-17T01:56:16.789Z,13.23
2022-10-17T02:01:21.332Z,13.42
2022-10-17T02:06:22.968Z,13.60
2022-10-17T02:11:26.983Z,13.68
2022-10-17T02:16:35.019Z,13.68
2022-10-17T02:21:56.376Z,13.69
2022-10-17T02:27:11.871Z,13.74
2022-10-17T02:32:50.450Z,13.57
2022-10-17T02:37:56.080Z,13.73
2022-10-17T02:42:59.969Z,13.60
2022-10-17T02:48:19.669Z,13.51
2022-10-17T02:53:34.465Z,13.39
2022-10-17T02:58:37.620Z,13.38
2022-10-17T03:03:39.211Z,13.40
2022-10-17T03:08:40.869Z,13.41
2022-10-17T03:13:42.484Z,13.51
2022-10-17T03:18:47.933Z,13.34
2022-10-17T03:23:51.829Z,13.34
2022-10-17T03:28:56.267Z,13.32
2022-10-17T03:33:58.530Z,13.34
2022-10-17T03:39:00.201Z,13.47
2022-10-17T03:44:03.080Z,13.41
2022-10-17T03:49:05.810Z,13.54
2022-10-17T03:54:07.961Z,13.48
2022-10-17T03:59:13.269Z,13.52
2022-10-17T04:04:15.372Z,13.55
2022-10-17T04:09:17.085Z,13.56
2022-10-17T04:14:27.597Z,13.60
2022-10-17T04:19:29.610Z,13.56
2022-10-17T04:24:31.502Z,13.52
2022-10-17T04:29:53.299Z,13.58
2022-10-17T04:34:58.330Z,13.67
2022-10-17T04:40:02.202Z,13.69
2022-10-17T04:45:07.494Z,13.75
2022-10-17T04:50:11.054Z,13.69
2022-10-17T04:55:14.964Z,13.62
2022-10-17T05:00:17.683Z,13.78
2022-10-17T05:05:48.411Z,13.68
2022-10-17T05:10:50.224Z,13.63
2022-10-17T05:15:52.294Z,13.73
2022-10-17T05:20:54.852Z,13.69
2022-10-17T05:25:57.249Z,13.62
2022-10-17T05:31:03.615Z,13.61
2022-10-17T05:36:07.288Z,13.62
2022-10-17T05:41:10.681Z,13.62
2022-10-17T05:46:13.534Z,13.65
2022-10-17T05:51:15.579Z,13.56
2022-10-17T05:56:20.500Z,13.60
2022-10-17T06:01:24.514Z,13.75
2022-10-17T06:06:26.626Z,13.66
2022-10-17T06:11:29.031Z,13.78
2022-10-17T06:16:31.652Z,13.87
2022-10-17T06:21:37.014Z,13.88
2022-10-17T06:26:44.411Z,13.90
2022-10-17T06:31:49.231Z,13.87
2022-10-17T06:36:51.598Z,13.87
2022-10-17T06:41:54.506Z,14.02
2022-10-17T06:47:07.441Z,14.23
2022-10-17T06:52:10.599Z,14.15
2022-10-17T06:57:24.507Z,14.19
2022-10-17T07:02:55.278Z,14.38
2022-10-17T07:07:56.937Z,14.39
2022-10-17T07:12:58.500Z,14.51
2022-10-17T07:18:00.489Z,14.60
2022-10-17T07:23:02.986Z,14.75
2022-10-17T07:28:05.437Z,14.87
2022-10-17T07:33:07.436Z,15.01
2022-10-17T07:38:09.709Z,15.07
2022-10-17T07:43:12.041Z,15.28
2022-10-17T07:48:13.936Z,15.55
2022-10-17T07:53:15.592Z,15.79
2022-10-17T07:58:17.396Z,15.93
2022-10-17T08:03:18.978Z,16.25
2022-10-17T08:08:20.680Z,16.31
2022-10-17T08:13:23.262Z,16.36
2022-10-17T08:18:24.844Z,16.59
2022-10-17T08:23:26.703Z,16.68
2022-10-17T08:28:28.819Z,16.82
2022-10-17T08:33:30.424Z,16.82
2022-10-17T08:38:35.558Z,16.90
2022-10-17T08:43:43.982Z,17.06
2022-10-17T08:48:47.894Z,17.08
2022-10-17T08:54:03.498Z,17.25
2022-10-17T08:59:10.821Z,17.37
2022-10-17T09:04:18.307Z,17.44
2022-10-17T09:09:45.422Z,17.72
2022-10-17T09:14:57.570Z,17.87
2022-10-17T09:20:04.410Z,17.84
2022-10-17T09:25:11.923Z,17.83
2022-10-17T09:30:40.063Z,17.86
2022-10-17T09:35:42.195Z,17.95
2022-10-17T09:40:44.991Z,18.18
2022-10-17T09:46:13.935Z,18.30
2022-10-17T09:51:25.665Z,18.27
2022-10-17T09:56:27.858Z,18.72
2022-10-17T10:01:31.420Z,19.05
2022-10-17T10:06:32.929Z,19.37
2022-10-17T10:11:55.867Z,19.64
2022-10-17T10:16:57.379Z,20.09
2022-10-17T10:22:17.785Z,20.54
2022-10-17T10:27:19.939Z,20.83
2022-10-17T10:32:27.931Z,21.04
2022-10-17T10:37:38.153Z,21.35
2022-10-17T10:42:40.601Z,21.84
2022-10-17T10:47:51.623Z,22.29
2022-10-17T10:53:47.094Z,22.44
2022-10-17T10:58:58.553Z,22.64
2022-10-17T11:04:20.210Z,22.84
2022-10-17T11:09:44.304Z,22.89
2022-10-17T11:14:56.043Z,23.04
2022-10-17T11:20:09.375Z,23.27
2022-10-17T11:25:28.508Z,23.55
2022-10-17T11:30:41.329Z,23.58
2022-10-17T11:35:47.345Z,23.56
2022-10-17T11:40:54.961Z,23.46
2022-10-17T11:46:05.573Z,23.46
2022-10-17T11:56:58.416Z,23.24
2022-10-17T12:02:16.965Z,22.67
2022-10-17T12:07:34.552Z,22.65
2022-10-17T12:12:38.319Z,22.53
2022-10-17T12:17:43.996Z,22.43
2022-10-17T12:22:49.631Z,22.16
2022-10-17T12:27:51.702Z,22.21
2022-10-17T12:33:05.715Z,22.36
2022-10-17T12:38:18.281Z,22.45
2022-10-17T12:43:28.986Z,22.50
2022-10-17T12:48:59.417Z,22.51
2022-10-17T12:54:15.103Z,22.47
2022-10-17T12:59:25.850Z,22.44
2022-10-17T13:04:29.645Z,22.34
2022-10-17T13:09:33.472Z,22.41
2022-10-17T13:14:35.168Z,22.41
2022-10-17T13:19:42.905Z,22.36
2022-10-17T13:24:45.428Z,22.41
2022-10-17T13:29:47.150Z,22.51
2022-10-17T13:35:07.159Z,22.34
2022-10-17T13:45:49.070Z,22.19
2022-10-17T13:50:54.034Z,21.98
2022-10-17T13:56:32.937Z,22.13
2022-10-17T14:01:34.984Z,22.05
2022-10-17T14:06:49.714Z,21.86
2022-10-17T14:12:11.096Z,21.72
2022-10-17T14:17:15.122Z,21.51
2022-10-17T14:22:17.563Z,21.44
2022-10-17T14:27:38.320Z,21.41
2022-10-17T14:32:42.993Z,21.12
2022-10-17T14:37:48.641Z,21.06
2022-10-17T14:42:53.104Z,20.96
2022-10-17T14:48:00.808Z,20.89
2022-10-17T14:53:04.215Z,20.83
2022-10-17T14:58:28.176Z,20.57
2022-10-17T15:03:29.837Z,20.62
2022-10-17T15:08:31.593Z,20.51
2022-10-17T15:13:39.933Z,20.30
2022-10-17T15:18:43.168Z,20.25
2022-10-17T15:23:45.214Z,20.19
2022-10-17T15:28:47.854Z,19.93
2022-10-17T15:33:50.466Z,19.77
2022-10-17T15:38:55.544Z,19.63
2022-10-17T15:43:58.086Z,19.30
2022-10-17T15:49:07.515Z,18.99
2022-10-17T15:54:09.416Z,19.33
2022-10-17T15:59:15.242Z,18.82
2022-10-17T16:04:18.466Z,18.73
2022-10-17T16:09:20.171Z,18.39
2022-10-17T16:14:21.889Z,18.20
2022-10-17T16:19:23.832Z,17.94
2022-10-17T16:24:25.696Z,18.03
2022-10-17T16:29:27.608Z,17.95
2022-10-17T16:34:30.691Z,17.78
2022-10-17T16:39:32.374Z,17.56
2022-10-17T16:44:34.145Z,17.41
2022-10-17T16:49:35.771Z,17.43
2022-10-17T16:54:37.622Z,17.25
2022-10-17T16:59:39.240Z,17.29
2022-10-17T17:04:40.729Z,17.43
2022-10-17T17:09:42.321Z,17.45
2022-10-17T17:14:43.956Z,17.16
2022-10-17T17:19:45.591Z,17.00
2022-10-17T17:24:47.210Z,17.07
2022-10-17T17:29:48.883Z,16.94
2022-10-17T17:34:50.592Z,16.96
2022-10-17T17:39:52.180Z,16.71
2022-10-17T17:44:53.754Z,16.89
2022-10-17T17:49:55.381Z,16.87
2022-10-17T17:54:56.974Z,16.51
2022-10-17T17:59:58.554Z,16.12
2022-10-17T18:05:00.085Z,15.91
2022-10-17T18:10:01.692Z,16.08
2022-10-17T18:15:04.571Z,16.02
2022-10-17T18:20:06.809Z,15.83
2022-10-17T18:25:08.550Z,15.86
2022-10-17T18:30:10.455Z,15.79
2022-10-17T18:35:12.073Z,15.76
2022-10-17T18:40:13.614Z,15.50
2022-10-17T18:45:15.894Z,15.31
2022-10-17T18:50:17.512Z,15.24
2022-10-17T18:55:20.597Z,15.48
2022-10-17T19:00:22.158Z,15.26
2022-10-17T19:05:23.726Z,15.23
2022-10-17T19:10:25.806Z,15.07
2022-10-17T19:15:27.505Z,15.06
2022-10-17T19:20:29.088Z,14.97
2022-10-17T19:25:30.724Z,14.95
2022-10-17T19:30:32.327Z,14.99
2022-10-17T19:35:34.839Z,14.83
2022-10-17T19:40:40.655Z,14.82
2022-10-17T19:45:42.267Z,14.72
2022-10-17T19:50:44.382Z,14.78
2022-10-17T19:55:46.176Z,14.87
2022-10-17T20:00:54.493Z,15.00
2022-10-17T20:05:56.271Z,14.75
2022-10-17T20:11:02.424Z,14.53
2022-10-17T20:16:05.326Z,14.68
2022-10-17T20:21:10.368Z,14.56
2022-10-17T20:26:37.594Z,14.44
2022-10-17T20:31:42.754Z,14.33
2022-10-17T20:36:45.038Z,14.23
2022-10-17T20:41:47.252Z,14.13
2022-10-17T20:47:01.042Z,13.97
2022-10-17T20:52:03.974Z,13.87
2022-10-17T20:57:06.213Z,14.00
2022-10-17T21:02:11.941Z,14.19
2022-10-17T21:07:13.725Z,14.22
2022-10-17T21:12:21.834Z,14.60
2022-10-17T21:17:32.912Z,14.69
2022-10-17T21:22:34.916Z,14.92
2022-10-17T21:27:36.514Z,14.66
2022-10-17T21:32:51.138Z,14.69
2022-10-17T21:37:53.519Z,14.99
2022-10-17T21:42:55.092Z,14.96
2022-10-17T21:48:13.076Z,14.68
2022-10-17T21:53:15.142Z,14.55
2022-10-17T21:58:16.739Z,14.51
2022-10-17T22:03:18.304Z,14.53
2022-10-17T22:08:19.877Z,14.44
2022-10-17T22:13:21.417Z,14.65
2022-10-17T22:18:22.982Z,14.51
2022-10-17T22:23:25.867Z,14.52
2022-10-17T22:28:27.620Z,14.17
2022-10-17T22:33:32.409Z,13.95
2022-10-17T22:38:34.597Z,13.77
2022-10-17T22:43:36.277Z,13.53
2022-10-17T22:48:38.210Z,13.61
2022-10-17T22:53:40.058Z,13.81
2022-10-17T22:58:42.291Z,13.69
2022-10-17T23:03:44.248Z,13.62
2022-10-17T23:08:46.172Z,13.66
2022-10-17T23:13:47.805Z,13.41
2022-10-17T23:18:49.397Z,13.39
2022-10-17T23:23:50.969Z,13.20
2022-10-17T23:28:55.687Z,13.12
2022-10-17T23:33:58.443Z,13.30
2022-10-17T23:39:00.035Z,13.43
2022-10-17T23:44:01.588Z,13.30
2022-10-17T23:49:04.277Z,13.13
2022-10-17T23:54:05.849Z,13.07
2022-10-17T23:59:08.820Z,12.87
